createdAt,value
2019-02-24T00:01:32.813Z,0.80
2019-02-24T00:04:01.217Z,0.67
2019-02-24T00:06:29.608Z,0.63
2019-02-24T00:08:58.028Z,0.90
2019-02-24T00:11:26.112Z,0.70
2019-02-24T00:13:54.548Z,0.90
2019-02-24T00:16:22.944Z,1.33
2019-02-24T00:18:51.383Z,0.50
2019-02-24T00:21:19.767Z,1.10
2019-02-24T00:23:48.201Z,0.77
2019-02-24T00:26:16.596Z,0.80
2019-02-24T00:28:45.051Z,0.70
2019-02-24T00:31:13.476Z,1.03
2019-02-24T00:33:41.908Z,0.90
2019-02-24T00:36:10.349Z,0.60
2019-02-24T00:38:38.784Z,0.50
2019-02-24T00:41:07.180Z,0.60
2019-02-24T00:43:35.594Z,1.00
2019-02-24T00:46:03.992Z,0.90
2019-02-24T00:48:32.116Z,0.97
2019-02-24T00:51:00.545Z,0.90
2019-02-24T00:53:28.621Z,0.90
2019-02-24T00:55:56.709Z,1.00
2019-02-24T00:58:24.760Z,0.80
2019-02-24T01:00:53.155Z,1.20
2019-02-24T01:03:21.593Z,1.27
2019-02-24T01:05:49.984Z,1.20
2019-02-24T01:08:18.448Z,1.00
2019-02-24T01:10:46.897Z,1.00
2019-02-24T01:13:15.293Z,0.80
2019-02-24T01:15:43.885Z,1.23
2019-02-24T01:18:12.275Z,1.17
2019-02-24T01:20:40.841Z,0.90
2019-02-24T01:23:09.241Z,1.17
2019-02-24T01:25:37.671Z,1.33
2019-02-24T01:28:06.141Z,1.17
2019-02-24T01:30:34.544Z,0.87
2019-02-24T01:33:02.946Z,0.90
2019-02-24T01:35:31.343Z,1.00
2019-02-24T01:37:59.742Z,1.00
2019-02-24T01:40:28.168Z,0.90
2019-02-24T01:42:56.563Z,0.87
2019-02-24T01:45:24.960Z,1.20
2019-02-24T01:47:53.356Z,1.00
2019-02-24T01:50:21.784Z,0.83
2019-02-24T01:52:50.208Z,0.80
2019-02-24T01:55:18.641Z,0.70
2019-02-24T01:57:47.204Z,0.60
2019-02-24T02:00:15.641Z,0.87
2019-02-24T02:02:44.033Z,0.80
2019-02-24T02:05:12.440Z,0.80
2019-02-24T02:07:40.835Z,1.53
2019-02-24T02:10:09.464Z,1.07
2019-02-24T02:12:37.530Z,0.67
2019-02-24T02:15:25.280Z,1.00
2019-02-24T02:17:53.704Z,0.73
2019-02-24T02:20:22.137Z,0.77
2019-02-24T02:22:50.556Z,0.90
2019-02-24T02:25:18.993Z,0.60
2019-02-24T02:27:47.383Z,0.70
2019-02-24T02:30:15.805Z,0.70
2019-02-24T02:32:44.201Z,0.83
2019-02-24T02:35:12.673Z,0.90
2019-02-24T02:37:41.098Z,0.70
2019-02-24T02:40:09.544Z,0.87
2019-02-24T02:42:37.940Z,1.03
2019-02-24T02:45:08.289Z,1.00
2019-02-24T02:47:36.702Z,0.83
2019-02-24T02:50:06.360Z,0.70
2019-02-24T02:52:34.994Z,0.70
2019-02-24T02:55:03.880Z,1.00
2019-02-24T02:57:32.356Z,0.70
2019-02-24T03:00:00.446Z,0.90
2019-02-24T03:02:28.836Z,0.97
2019-02-24T03:04:57.247Z,0.90
2019-02-24T03:07:27.288Z,1.40
2019-02-24T03:09:55.693Z,1.00
2019-02-24T03:12:24.190Z,1.13
2019-02-24T03:14:52.601Z,1.17
2019-02-24T03:17:20.696Z,1.10
2019-02-24T03:19:49.103Z,0.63
2019-02-24T03:22:17.172Z,1.13
2019-02-24T03:24:45.569Z,0.90
2019-02-24T03:27:13.995Z,1.03
2019-02-24T03:29:43.814Z,1.20
2019-02-24T03:32:12.294Z,1.10
2019-02-24T03:34:40.685Z,0.80
2019-02-24T03:37:08.759Z,1.10
2019-02-24T03:39:37.189Z,1.30
2019-02-24T03:42:05.620Z,1.27
2019-02-24T03:44:34.013Z,1.20
2019-02-24T03:47:02.449Z,1.53
2019-02-24T03:49:30.510Z,0.90
2019-02-24T03:51:58.921Z,1.13
2019-02-24T03:54:26.985Z,1.20
2019-02-24T03:56:55.470Z,1.37
2019-02-24T03:59:23.876Z,1.50
2019-02-24T04:01:52.280Z,1.00
2019-02-24T04:04:20.676Z,0.70
2019-02-24T04:06:49.112Z,0.83
2019-02-24T04:09:17.534Z,0.97
2019-02-24T04:11:45.929Z,0.90
2019-02-24T04:14:14.325Z,1.00
2019-02-24T04:16:42.764Z,1.03
2019-02-24T04:19:11.198Z,0.87
2019-02-24T04:21:39.624Z,1.30
2019-02-24T04:24:08.014Z,1.00
2019-02-24T04:26:36.513Z,0.80
2019-02-24T04:29:04.901Z,0.90
2019-02-24T04:31:32.968Z,1.07
2019-02-24T04:34:01.366Z,0.70
2019-02-24T04:36:29.473Z,1.00
2019-02-24T04:38:57.569Z,1.00
2019-02-24T04:41:25.624Z,0.70
2019-02-24T04:43:54.036Z,1.00
2019-02-24T04:46:22.107Z,0.90
2019-02-24T04:48:50.521Z,1.07
2019-02-24T04:51:18.916Z,1.33
2019-02-24T04:53:47.326Z,0.80
2019-02-24T04:56:15.723Z,1.13
2019-02-24T04:58:44.123Z,0.87
2019-02-24T05:01:12.519Z,0.90
2019-02-24T05:03:41.045Z,0.83
2019-02-24T05:06:09.446Z,0.87
2019-02-24T05:08:38.850Z,1.20
2019-02-24T05:11:07.272Z,1.00
2019-02-24T05:13:35.357Z,0.67
2019-02-24T05:16:03.783Z,1.03
2019-02-24T05:18:31.921Z,1.17
2019-02-24T05:21:00.381Z,0.93
2019-02-24T05:23:28.794Z,0.80
2019-02-24T05:25:57.195Z,1.00
2019-02-24T05:28:25.604Z,1.00
2019-02-24T05:30:54.010Z,0.83
2019-02-24T05:33:22.412Z,0.90
2019-02-24T05:35:50.827Z,0.90
2019-02-24T05:38:19.256Z,0.73
2019-02-24T05:40:47.650Z,1.23
2019-02-24T05:43:15.896Z,1.20
2019-02-24T05:45:44.296Z,0.77
2019-02-24T05:48:12.728Z,1.20
2019-02-24T05:51:00.549Z,1.00
2019-02-24T05:53:28.956Z,0.70
2019-02-24T05:55:57.381Z,0.83
2019-02-24T05:58:25.817Z,0.83
2019-02-24T06:00:54.210Z,0.83
2019-02-24T06:03:22.281Z,1.10
2019-02-24T06:05:50.709Z,0.73
2019-02-24T06:08:19.112Z,0.70
2019-02-24T06:10:47.568Z,0.70
2019-02-24T06:13:15.970Z,0.60
2019-02-24T06:15:44.364Z,1.20
2019-02-24T06:18:12.797Z,0.80
2019-02-24T06:20:41.184Z,1.10
2019-02-24T06:23:09.592Z,1.23
2019-02-24T06:25:37.996Z,1.17
2019-02-24T06:28:06.396Z,1.00
2019-02-24T06:30:34.872Z,1.07
2019-02-24T06:33:03.268Z,0.90
2019-02-24T06:35:31.675Z,0.80
2019-02-24T06:38:00.084Z,1.10
2019-02-24T06:40:47.827Z,1.00
2019-02-24T06:43:16.273Z,0.87
2019-02-24T06:45:44.401Z,1.43
2019-02-24T06:48:12.839Z,1.17
2019-02-24T06:50:48.396Z,1.40
2019-02-24T06:53:16.812Z,1.27
2019-02-24T06:55:45.277Z,1.10
2019-02-24T06:58:13.347Z,1.43
2019-02-24T07:00:41.764Z,1.30
2019-02-24T07:03:09.832Z,0.97
2019-02-24T07:05:38.237Z,1.00
2019-02-24T07:08:06.304Z,1.30
2019-02-24T07:10:37.436Z,1.27
2019-02-24T07:13:05.860Z,1.20
2019-02-24T07:15:33.962Z,1.37
2019-02-24T07:18:02.351Z,0.80
2019-02-24T07:20:50.095Z,1.20
2019-02-24T07:23:18.516Z,0.77
2019-02-24T07:25:46.944Z,1.40
2019-02-24T07:28:15.328Z,0.97
2019-02-24T07:30:43.735Z,1.23
2019-02-24T07:33:12.513Z,1.00
2019-02-24T07:35:41.110Z,1.60
2019-02-24T07:38:09.505Z,1.40
2019-02-24T07:40:37.941Z,1.47
2019-02-24T07:43:06.328Z,1.20
2019-02-24T07:45:34.399Z,1.40
2019-02-24T07:48:02.832Z,1.33
2019-02-24T07:50:31.268Z,1.43
2019-02-24T07:52:59.668Z,1.40
2019-02-24T07:55:28.080Z,1.33
2019-02-24T07:57:56.480Z,1.20
2019-02-24T08:00:31.940Z,1.13
2019-02-24T08:02:55.096Z,1.10
2019-02-24T08:05:23.498Z,1.20
2019-02-24T08:07:51.891Z,1.73
2019-02-24T08:10:20.293Z,1.20
2019-02-24T08:12:48.716Z,1.20
2019-02-24T08:15:17.119Z,1.70
2019-02-24T08:17:45.512Z,1.33
2019-02-24T08:20:13.921Z,1.60
2019-02-24T08:22:42.316Z,1.70
2019-02-24T08:25:10.732Z,1.60
2019-02-24T08:27:39.113Z,1.20
2019-02-24T08:30:10.632Z,1.47
2019-02-24T08:32:39.053Z,1.77
2019-02-24T08:35:07.488Z,1.90
2019-02-24T08:37:36.153Z,1.53
2019-02-24T08:40:06.800Z,1.50
2019-02-24T08:42:35.217Z,1.30
2019-02-24T08:45:04.031Z,1.60
2019-02-24T08:47:32.468Z,1.57
2019-02-24T08:50:00.858Z,1.57
2019-02-24T08:52:29.264Z,1.70
2019-02-24T08:54:57.720Z,1.50
2019-02-24T08:57:26.120Z,1.50
2019-02-24T08:59:54.525Z,1.70
2019-02-24T09:02:22.953Z,1.70
2019-02-24T09:04:51.341Z,1.93
2019-02-24T09:07:19.739Z,1.60
2019-02-24T09:09:48.158Z,1.43
2019-02-24T09:12:16.573Z,1.70
2019-02-24T09:14:45.015Z,1.53
2019-02-24T09:17:13.423Z,2.40
2019-02-24T09:19:41.487Z,1.80
2019-02-24T09:22:09.911Z,1.75
2019-02-24T09:24:37.963Z,2.08
2019-02-24T09:27:06.412Z,1.75
2019-02-24T09:29:34.796Z,1.80
2019-02-24T09:32:03.212Z,1.72
2019-02-24T09:34:31.604Z,1.82
2019-02-24T09:37:00.009Z,1.60
2019-02-24T09:39:28.544Z,1.80
2019-02-24T09:41:57.023Z,1.60
2019-02-24T09:44:25.442Z,2.00
2019-02-24T09:46:53.843Z,1.98
2019-02-24T09:49:22.239Z,1.47
2019-02-24T09:51:52.321Z,2.00
2019-02-24T09:54:20.941Z,2.02
2019-02-24T09:56:49.053Z,2.12
2019-02-24T09:59:17.436Z,1.95
2019-02-24T10:01:45.835Z,2.12
2019-02-24T10:04:14.231Z,2.52
2019-02-24T10:06:42.628Z,2.02
2019-02-24T10:09:11.062Z,1.87
2019-02-24T10:11:39.456Z,2.00
2019-02-24T10:14:07.928Z,1.98
2019-02-24T10:16:36.324Z,2.05
2019-02-24T10:19:04.735Z,1.72
2019-02-24T10:21:33.200Z,1.57
2019-02-24T10:24:01.604Z,1.82
2019-02-24T10:26:29.996Z,2.10
2019-02-24T10:28:58.104Z,2.27
2019-02-24T10:31:26.524Z,2.27
2019-02-24T10:33:54.920Z,1.77
2019-02-24T10:36:23.327Z,1.65
2019-02-24T10:38:51.720Z,1.47
2019-02-24T10:41:20.121Z,2.02
2019-02-24T10:43:48.568Z,1.70
2019-02-24T10:46:17.046Z,1.90
2019-02-24T10:48:45.478Z,2.37
2019-02-24T10:51:14.108Z,1.50
2019-02-24T10:53:42.516Z,1.87
2019-02-24T10:56:10.919Z,2.00
2019-02-24T10:58:39.315Z,1.90
2019-02-24T11:01:07.772Z,2.00
2019-02-24T11:03:36.176Z,1.82
2019-02-24T11:06:04.239Z,1.67
2019-02-24T11:08:32.646Z,2.40
2019-02-24T11:11:00.711Z,1.85
2019-02-24T11:13:29.141Z,2.15
2019-02-24T11:15:57.572Z,1.87
2019-02-24T11:18:25.959Z,1.90
2019-02-24T11:20:54.396Z,2.20
2019-02-24T11:23:22.889Z,1.67
2019-02-24T11:25:51.288Z,1.80
2019-02-24T11:28:19.717Z,2.02
2019-02-24T11:30:48.167Z,2.15
2019-02-24T11:33:16.556Z,1.90
2019-02-24T11:35:45.060Z,1.80
2019-02-24T11:38:13.452Z,1.95
2019-02-24T11:40:41.803Z,2.00
2019-02-24T11:43:10.187Z,2.00
2019-02-24T11:45:38.353Z,1.47
2019-02-24T11:48:06.420Z,1.80
2019-02-24T11:50:34.499Z,1.70
2019-02-24T11:53:02.892Z,1.98
2019-02-24T11:55:31.301Z,1.60
2019-02-24T11:57:59.405Z,1.60
2019-02-24T12:00:27.897Z,1.77
2019-02-24T12:02:55.959Z,1.70
2019-02-24T12:05:24.364Z,1.70
2019-02-24T12:07:52.768Z,1.60
2019-02-24T12:10:21.164Z,1.60
2019-02-24T12:12:49.556Z,1.77
2019-02-24T12:15:18.041Z,1.45
2019-02-24T12:17:46.423Z,2.02
2019-02-24T12:20:15.398Z,1.95
2019-02-24T12:22:43.787Z,1.60
2019-02-24T12:25:12.348Z,2.10
2019-02-24T12:27:40.735Z,2.02
2019-02-24T12:30:13.667Z,2.00
2019-02-24T12:32:41.736Z,1.55
2019-02-24T12:35:10.463Z,1.32
2019-02-24T12:37:38.884Z,1.60
2019-02-24T12:40:09.720Z,1.75
2019-02-24T12:42:38.100Z,1.70
2019-02-24T12:45:09.021Z,1.57
2019-02-24T12:47:37.412Z,1.77
2019-02-24T12:50:10.004Z,2.22
2019-02-24T12:52:38.422Z,1.98
2019-02-24T12:55:08.360Z,1.95
2019-02-24T12:57:36.775Z,1.85
2019-02-24T13:00:09.429Z,2.00
2019-02-24T13:02:37.824Z,1.50
2019-02-24T13:05:07.353Z,1.80
2019-02-24T13:07:35.766Z,1.92
2019-02-24T13:10:06.964Z,1.45
2019-02-24T13:12:35.371Z,1.02
2019-02-24T13:15:04.377Z,1.10
2019-02-24T13:17:32.873Z,0.70
2019-02-24T13:20:01.276Z,1.30
2019-02-24T13:22:29.677Z,1.00
2019-02-24T13:24:58.086Z,1.20
2019-02-24T13:27:26.520Z,1.17
2019-02-24T13:29:54.942Z,1.12
2019-02-24T13:32:23.368Z,0.80
2019-02-24T13:34:51.756Z,0.90
2019-02-24T13:37:20.201Z,0.90
2019-02-24T13:39:48.408Z,1.10
2019-02-24T13:42:16.812Z,0.90
2019-02-24T13:44:45.232Z,0.98
2019-02-24T13:47:13.656Z,0.90
2019-02-24T13:49:43.063Z,0.83
2019-02-24T13:52:11.562Z,1.30
2019-02-24T13:54:39.960Z,1.07
2019-02-24T13:57:08.392Z,0.82
2019-02-24T13:59:36.815Z,0.98
2019-02-24T14:02:05.207Z,0.90
2019-02-24T14:04:33.604Z,1.22
2019-02-24T14:07:02.011Z,1.07
2019-02-24T14:09:30.411Z,1.32
2019-02-24T14:11:58.879Z,1.60
2019-02-24T14:14:27.268Z,1.25
2019-02-24T14:16:55.358Z,1.55
2019-02-24T14:19:23.533Z,1.25
2019-02-24T14:21:51.928Z,1.42
2019-02-24T14:24:20.325Z,1.15
2019-02-24T14:26:48.403Z,1.17
2019-02-24T14:29:16.504Z,1.32
2019-02-24T14:31:44.576Z,1.55
2019-02-24T14:34:12.968Z,1.37
2019-02-24T14:36:41.387Z,1.43
2019-02-24T14:39:10.522Z,1.17
2019-02-24T14:41:38.923Z,1.00
2019-02-24T14:44:07.320Z,1.20
2019-02-24T14:46:35.756Z,1.52
2019-02-24T14:49:04.155Z,1.27
2019-02-24T14:51:32.558Z,1.07
2019-02-24T14:54:00.978Z,1.30
2019-02-24T14:56:29.409Z,1.15
2019-02-24T14:58:57.800Z,1.10
2019-02-24T15:01:26.223Z,0.95
2019-02-24T15:03:54.320Z,1.62
2019-02-24T15:06:22.813Z,1.13
2019-02-24T15:08:51.242Z,1.40
2019-02-24T15:11:19.639Z,1.10
2019-02-24T15:13:48.036Z,1.32
2019-02-24T15:16:16.441Z,1.20
2019-02-24T15:18:44.876Z,1.27
2019-02-24T15:21:13.298Z,1.10
2019-02-24T15:23:41.820Z,0.93
2019-02-24T15:26:10.270Z,1.20
2019-02-24T15:28:38.680Z,0.80
2019-02-24T15:31:07.096Z,0.80
2019-02-24T15:33:35.962Z,0.95
2019-02-24T15:36:04.369Z,0.75
2019-02-24T15:38:32.764Z,0.80
2019-02-24T15:41:00.833Z,0.70
2019-02-24T15:43:29.240Z,1.02
2019-02-24T15:45:57.635Z,1.17
2019-02-24T15:48:26.075Z,1.13
2019-02-24T15:50:54.501Z,0.77
2019-02-24T15:53:22.924Z,1.23
2019-02-24T15:55:51.318Z,1.20
2019-02-24T15:58:19.977Z,1.30
2019-02-24T16:00:48.375Z,1.00
2019-02-24T16:03:16.804Z,1.00
2019-02-24T16:05:45.199Z,1.17
2019-02-24T16:08:13.671Z,1.20
2019-02-24T16:10:42.101Z,1.17
2019-02-24T16:13:16.658Z,1.25
2019-02-24T16:15:40.651Z,1.50
2019-02-24T16:18:09.072Z,1.47
2019-02-24T16:20:38.311Z,1.40
2019-02-24T16:23:06.717Z,1.85
2019-02-24T16:25:35.158Z,1.50
2019-02-24T16:28:03.689Z,1.40
2019-02-24T16:30:31.754Z,2.07
2019-02-24T16:33:00.192Z,1.50
2019-02-24T16:35:28.583Z,1.40
2019-02-24T16:37:56.990Z,1.33
2019-02-24T16:40:26.919Z,1.20
2019-02-24T16:42:55.353Z,1.27
2019-02-24T16:45:23.748Z,1.60
2019-02-24T16:47:52.267Z,1.40
2019-02-24T16:50:22.936Z,1.20
2019-02-24T16:52:51.331Z,1.73
2019-02-24T16:55:19.758Z,1.33
2019-02-24T16:57:48.969Z,1.40
2019-02-24T17:00:19.920Z,1.33
2019-02-24T17:02:48.800Z,1.47
2019-02-24T17:05:17.432Z,1.60
2019-02-24T17:07:45.892Z,1.70
2019-02-24T17:10:17.373Z,1.40
2019-02-24T17:12:45.936Z,2.10
2019-02-24T17:15:14.582Z,2.10
2019-02-24T17:17:43.864Z,2.40
2019-02-24T17:20:20.969Z,1.77
2019-02-24T17:22:49.376Z,2.70
2019-02-24T17:25:18.018Z,2.17
2019-02-24T17:27:46.844Z,1.50
2019-02-24T17:30:16.383Z,1.67
2019-02-24T17:32:44.853Z,2.40
2019-02-24T17:35:14.475Z,2.30
2019-02-24T17:37:42.899Z,1.60
2019-02-24T17:40:19.213Z,1.63
2019-02-24T17:42:46.848Z,2.03
2019-02-24T17:45:15.327Z,2.33
2019-02-24T17:47:43.721Z,2.30
2019-02-24T17:50:13.893Z,2.90
2019-02-24T17:52:42.305Z,3.10
2019-02-24T17:55:12.676Z,4.67
2019-02-24T17:57:41.056Z,3.13
2019-02-24T18:00:12.536Z,1.80
2019-02-24T18:02:40.932Z,2.00
2019-02-24T18:05:09.503Z,2.83
2019-02-24T18:07:37.902Z,2.60
2019-02-24T18:10:06.471Z,4.00
2019-02-24T18:12:34.893Z,2.83
2019-02-24T18:15:03.236Z,2.27
2019-02-24T18:17:31.629Z,2.20
2019-02-24T18:20:00.036Z,2.53
2019-02-24T18:22:28.432Z,2.07
2019-02-24T18:25:02.983Z,2.70
2019-02-24T18:27:26.628Z,2.67
2019-02-24T18:29:55.037Z,2.27
2019-02-24T18:32:23.100Z,2.47
2019-02-24T18:34:51.176Z,3.67
2019-02-24T18:37:19.239Z,2.63
2019-02-24T18:39:47.643Z,2.93
2019-02-24T18:42:15.745Z,1.90
2019-02-24T18:44:43.811Z,2.27
2019-02-24T18:47:11.922Z,2.30
2019-02-24T18:49:40.414Z,2.10
2019-02-24T18:52:08.471Z,2.73
2019-02-24T18:54:36.932Z,1.60
2019-02-24T18:57:05.478Z,2.57
2019-02-24T18:59:33.576Z,1.80
2019-02-24T19:02:02.036Z,2.07
2019-02-24T19:04:30.440Z,2.10
2019-02-24T19:06:58.865Z,2.23
2019-02-24T19:09:27.364Z,1.93
2019-02-24T19:11:55.768Z,2.27
2019-02-24T19:14:24.160Z,2.80
2019-02-24T19:16:52.635Z,2.43
2019-02-24T19:19:25.520Z,1.97
2019-02-24T19:21:51.193Z,1.50
2019-02-24T19:24:19.580Z,2.00
2019-02-24T19:27:07.320Z,1.90
2019-02-24T19:29:35.707Z,2.73
2019-02-24T19:32:04.204Z,2.20
2019-02-24T19:34:32.628Z,1.97
2019-02-24T19:37:01.028Z,2.10
2019-02-24T19:39:29.449Z,2.07
2019-02-24T19:41:57.857Z,3.30
2019-02-24T19:44:26.252Z,2.83
2019-02-24T19:46:54.668Z,2.53
2019-02-24T19:49:23.072Z,2.77
2019-02-24T19:51:51.496Z,2.33
2019-02-24T19:54:19.879Z,2.50
2019-02-24T19:56:48.279Z,2.53
2019-02-24T19:59:16.348Z,2.27
2019-02-24T20:01:44.764Z,1.67
2019-02-24T20:04:16.040Z,2.37
2019-02-24T20:06:43.288Z,1.90
2019-02-24T20:09:11.741Z,1.90
2019-02-24T20:11:40.140Z,1.90
2019-02-24T20:14:08.536Z,1.97
2019-02-24T20:16:36.944Z,1.90
2019-02-24T20:19:05.040Z,1.77
2019-02-24T20:21:33.437Z,1.80
2019-02-24T20:24:01.839Z,2.37
2019-02-24T20:26:29.936Z,1.60
2019-02-24T20:28:58.331Z,1.50
2019-02-24T20:31:26.404Z,1.80
2019-02-24T20:33:54.791Z,1.77
2019-02-24T20:36:23.230Z,2.50
2019-02-24T20:38:51.645Z,3.30
2019-02-24T20:41:20.048Z,3.37
2019-02-24T20:43:48.469Z,3.27
2019-02-24T20:46:16.885Z,3.40
2019-02-24T20:48:45.349Z,3.93
2019-02-24T20:51:13.735Z,3.50
2019-02-24T20:53:42.141Z,3.20
2019-02-24T20:56:10.539Z,2.93
2019-02-24T20:58:38.932Z,3.53
2019-02-24T21:01:08.972Z,3.27
2019-02-24T21:03:37.440Z,3.40
2019-02-24T21:06:05.869Z,3.40
2019-02-24T21:08:34.274Z,3.10
2019-02-24T21:11:22.023Z,3.37
2019-02-24T21:13:50.415Z,3.73
2019-02-24T21:16:18.493Z,3.13
2019-02-24T21:18:46.921Z,2.90
2019-02-24T21:21:14.992Z,3.23
2019-02-24T21:23:43.467Z,3.27
2019-02-24T21:26:11.948Z,4.20
2019-02-24T21:28:40.344Z,2.93
2019-02-24T21:31:08.784Z,2.80
2019-02-24T21:33:37.177Z,3.30
2019-02-24T21:36:05.256Z,3.27
2019-02-24T21:38:33.643Z,3.30
2019-02-24T21:41:02.069Z,3.37
2019-02-24T21:43:30.473Z,4.23
2019-02-24T21:45:58.861Z,3.00
2019-02-24T21:48:26.935Z,3.40
2019-02-24T21:50:55.348Z,3.83
2019-02-24T21:53:23.451Z,2.70
2019-02-24T21:55:51.877Z,3.00
2019-02-24T21:58:20.324Z,3.20
2019-02-24T22:00:48.750Z,3.50
2019-02-24T22:03:17.168Z,3.07
2019-02-24T22:05:45.556Z,2.30
2019-02-24T22:08:13.956Z,2.77
2019-02-24T22:10:42.021Z,2.50
2019-02-24T22:13:10.420Z,2.23
2019-02-24T22:15:58.185Z,2.17
2019-02-24T22:18:26.784Z,2.70
2019-02-24T22:20:55.203Z,2.10
2019-02-24T22:23:23.600Z,2.77
2019-02-24T22:25:52.092Z,2.33
2019-02-24T22:28:20.520Z,2.70
2019-02-24T22:30:48.985Z,2.13
2019-02-24T22:33:17.381Z,1.93
2019-02-24T22:35:45.773Z,2.37
2019-02-24T22:38:13.879Z,2.20
2019-02-24T22:40:42.449Z,1.87
2019-02-24T22:43:10.839Z,2.47
2019-02-24T22:45:39.232Z,2.40
2019-02-24T22:48:07.640Z,2.43
2019-02-24T22:50:36.088Z,2.17
2019-02-24T22:53:04.540Z,2.80
2019-02-24T22:55:32.937Z,2.60
2019-02-24T22:58:01.007Z,2.43
2019-02-24T23:00:52.520Z,2.80
2019-02-24T23:03:39.940Z,2.87
2019-02-24T23:06:08.608Z,2.57
2019-02-24T23:08:37.008Z,2.83
2019-02-24T23:11:05.568Z,2.60
2019-02-24T23:13:33.640Z,2.30
2019-02-24T23:16:02.031Z,2.73
2019-02-24T23:18:30.488Z,2.70
2019-02-24T23:20:58.886Z,2.40
2019-02-24T23:23:27.297Z,2.30
2019-02-24T23:25:55.687Z,2.37
2019-02-24T23:28:24.121Z,2.27
2019-02-24T23:30:52.512Z,2.00
2019-02-24T23:33:20.947Z,2.43
2019-02-24T23:35:49.044Z,2.53
2019-02-24T23:38:17.453Z,2.33
2019-02-24T23:40:45.840Z,2.17
2019-02-24T23:43:14.265Z,3.17
2019-02-24T23:45:42.715Z,2.57
2019-02-24T23:48:11.120Z,2.63
2019-02-24T23:50:39.519Z,2.50
2019-02-24T23:53:07.916Z,2.43
2019-02-24T23:55:36.337Z,2.50
2019-02-24T23:58:05.096Z,2.30
